sensor_id;sensor_type;location;lat;lon;timestamp;P1;durP1;ratioP1;P2;durP2;ratioP2
11614;SDS011;5863;52.832;4.758;2024-03-23T00:53:06;14.25;;;2.70;;
11614;SDS011;5863;52.832;4.758;2024-03-23T00:55:33;13.80;;;2.80;;
11614;SDS011;5863;52.832;4.758;2024-03-23T00:57:59;14.73;;;3.15;;
11614;SDS011;5863;52.832;4.758;2024-03-23T01:00:26;13.25;;;2.40;;
11614;SDS011;5863;52.832;4.758;2024-03-23T01:02:52;7.10;;;2.45;;
11614;SDS011;5863;52.832;4.758;2024-03-23T01:05:19;15.18;;;2.97;;
11614;SDS011;5863;52.832;4.758;2024-03-23T01:07:45;12.00;;;2.60;;
11614;SDS011;5863;52.832;4.758;2024-03-23T01:10:13;10.23;;;2.17;;
11614;SDS011;5863;52.832;4.758;2024-03-23T01:12:39;12.48;;;2.25;;
11614;SDS011;5863;52.832;4.758;2024-03-23T01:15:06;13.15;;;2.55;;
11614;SDS011;5863;52.832;4.758;2024-03-23T01:17:33;15.30;;;2.55;;
11614;SDS011;5863;52.832;4.758;2024-03-23T01:19:59;13.02;;;2.50;;
11614;SDS011;5863;52.832;4.758;2024-03-23T01:22:25;10.18;;;2.53;;
11614;SDS011;5863;52.832;4.758;2024-03-23T01:24:52;12.07;;;2.35;;
11614;SDS011;5863;52.832;4.758;2024-03-23T01:27:19;15.98;;;2.30;;
11614;SDS011;5863;52.832;4.758;2024-03-23T01:29:46;17.20;;;2.50;;
11614;SDS011;5863;52.832;4.758;2024-03-23T01:32:12;17.15;;;3.28;;
11614;SDS011;5863;52.832;4.758;2024-03-23T01:34:39;10.50;;;2.17;;
11614;SDS011;5863;52.832;4.758;2024-03-23T01:37:05;11.88;;;2.83;;
11614;SDS011;5863;52.832;4.758;2024-03-23T01:39:32;8.95;;;2.47;;
11614;SDS011;5863;52.832;4.758;2024-03-23T01:41:58;17.15;;;2.60;;
11614;SDS011;5863;52.832;4.758;2024-03-23T01:44:26;15.98;;;2.65;;
11614;SDS011;5863;52.832;4.758;2024-03-23T01:46:52;10.75;;;2.38;;
11614;SDS011;5863;52.832;4.758;2024-03-23T01:49:19;11.48;;;3.15;;
11614;SDS011;5863;52.832;4.758;2024-03-23T01:51:45;7.95;;;2.05;;
11614;SDS011;5863;52.832;4.758;2024-03-23T01:54:12;11.00;;;3.22;;
11614;SDS011;5863;52.832;4.758;2024-03-23T01:56:38;12.00;;;2.53;;
11614;SDS011;5863;52.832;4.758;2024-03-23T01:59:05;9.77;;;2.40;;
11614;SDS011;5863;52.832;4.758;2024-03-23T02:01:32;14.18;;;2.15;;
11614;SDS011;5863;52.832;4.758;2024-03-23T02:04:01;13.20;;;2.95;;
11614;SDS011;5863;52.832;4.758;2024-03-23T02:06:27;17.48;;;2.40;;
11614;SDS011;5863;52.832;4.758;2024-03-23T02:08:54;12.52;;;2.17;;
11614;SDS011;5863;52.832;4.758;2024-03-23T02:11:20;16.55;;;3.13;;
11614;SDS011;5863;52.832;4.758;2024-03-23T02:13:47;16.67;;;2.50;;
11614;SDS011;5863;52.832;4.758;2024-03-23T02:16:13;10.35;;;2.30;;
11614;SDS011;5863;52.832;4.758;2024-03-23T02:18:41;9.23;;;2.17;;
11614;SDS011;5863;52.832;4.758;2024-03-23T02:21:07;8.32;;;2.20;;
11614;SDS011;5863;52.832;4.758;2024-03-23T02:23:35;6.53;;;2.17;;
11614;SDS011;5863;52.832;4.758;2024-03-23T02:26:01;13.05;;;2.33;;
11614;SDS011;5863;52.832;4.758;2024-03-23T02:28:28;12.52;;;2.20;;
11614;SDS011;5863;52.832;4.758;2024-03-23T02:30:54;8.82;;;2.28;;
11614;SDS011;5863;52.832;4.758;2024-03-23T02:33:21;10.02;;;1.88;;
11614;SDS011;5863;52.832;4.758;2024-03-23T02:35:47;9.38;;;2.65;;
11614;SDS011;5863;52.832;4.758;2024-03-23T02:38:13;12.70;;;2.45;;
11614;SDS011;5863;52.832;4.758;2024-03-23T02:40:41;6.95;;;2.00;;
11614;SDS011;5863;52.832;4.758;2024-03-23T02:43:08;16.15;;;2.30;;
11614;SDS011;5863;52.832;4.758;2024-03-23T02:45:33;14.48;;;2.10;;
11614;SDS011;5863;52.832;4.758;2024-03-23T02:48:00;11.80;;;2.40;;
11614;SDS011;5863;52.832;4.758;2024-03-23T02:50:26;11.18;;;2.42;;
11614;SDS011;5863;52.832;4.758;2024-03-23T02:52:53;17.20;;;2.78;;
11614;SDS011;5863;52.832;4.758;2024-03-23T02:55:19;8.65;;;2.22;;
11614;SDS011;5863;52.832;4.758;2024-03-23T02:57:47;13.13;;;2.35;;
11614;SDS011;5863;52.832;4.758;2024-03-23T03:00:13;8.75;;;2.13;;
11614;SDS011;5863;52.832;4.758;2024-03-23T03:02:40;9.65;;;2.05;;
11614;SDS011;5863;52.832;4.758;2024-03-23T03:05:06;13.15;;;2.20;;
11614;SDS011;5863;52.832;4.758;2024-03-23T03:07:34;10.55;;;2.50;;
11614;SDS011;5863;52.832;4.758;2024-03-23T03:09:59;12.05;;;2.42;;
11614;SDS011;5863;52.832;4.758;2024-03-23T03:12:26;15.48;;;2.60;;
11614;SDS011;5863;52.832;4.758;2024-03-23T03:14:54;14.43;;;3.17;;
11614;SDS011;5863;52.832;4.758;2024-03-23T03:17:20;9.60;;;2.22;;
11614;SDS011;5863;52.832;4.758;2024-03-23T03:19:46;9.40;;;2.17;;
11614;SDS011;5863;52.832;4.758;2024-03-23T03:22:13;12.90;;;2.10;;
11614;SDS011;5863;52.832;4.758;2024-03-23T03:24:39;11.13;;;2.88;;
11614;SDS011;5863;52.832;4.758;2024-03-23T03:27:06;15.52;;;2.47;;
11614;SDS011;5863;52.832;4.758;2024-03-23T03:29:32;15.23;;;2.93;;
11614;SDS011;5863;52.832;4.758;2024-03-23T03:32:02;18.23;;;3.35;;
11614;SDS011;5863;52.832;4.758;2024-03-23T03:34:28;9.63;;;2.35;;
11614;SDS011;5863;52.832;4.758;2024-03-23T03:36:55;9.63;;;2.63;;
11614;SDS011;5863;52.832;4.758;2024-03-23T03:39:21;10.77;;;2.45;;
11614;SDS011;5863;52.832;4.758;2024-03-23T03:41:48;12.32;;;2.78;;
11614;SDS011;5863;52.832;4.758;2024-03-23T03:44:14;8.10;;;2.50;;
11614;SDS011;5863;52.832;4.758;2024-03-23T03:46:41;10.50;;;2.30;;
11614;SDS011;5863;52.832;4.758;2024-03-23T03:49:09;11.87;;;2.77;;
11614;SDS011;5863;52.832;4.758;2024-03-23T03:51:36;9.20;;;2.63;;
11614;SDS011;5863;52.832;4.758;2024-03-23T03:54:02;11.93;;;3.17;;
11614;SDS011;5863;52.832;4.758;2024-03-23T03:56:29;17.07;;;2.87;;
11614;SDS011;5863;52.832;4.758;2024-03-23T03:58:55;14.27;;;3.00;;
11614;SDS011;5863;52.832;4.758;2024-03-23T04:01:22;11.00;;;2.73;;
11614;SDS011;5863;52.832;4.758;2024-03-23T04:03:49;15.40;;;3.05;;
11614;SDS011;5863;52.832;4.758;2024-03-23T04:06:19;10.50;;;3.00;;
11614;SDS011;5863;52.832;4.758;2024-03-23T04:08:46;7.70;;;2.67;;
11614;SDS011;5863;52.832;4.758;2024-03-23T04:11:13;10.57;;;2.50;;
11614;SDS011;5863;52.832;4.758;2024-03-23T04:13:39;16.23;;;2.60;;
11614;SDS011;5863;52.832;4.758;2024-03-23T04:16:06;13.52;;;2.72;;
11614;SDS011;5863;52.832;4.758;2024-03-23T04:18:33;17.17;;;2.67;;
11614;SDS011;5863;52.832;4.758;2024-03-23T04:21:00;14.27;;;3.03;;
11614;SDS011;5863;52.832;4.758;2024-03-23T04:23:27;13.90;;;2.45;;
11614;SDS011;5863;52.832;4.758;2024-03-23T04:25:54;14.50;;;2.75;;
11614;SDS011;5863;52.832;4.758;2024-03-23T04:28:19;9.07;;;2.35;;
11614;SDS011;5863;52.832;4.758;2024-03-23T04:30:47;13.98;;;2.45;;
11614;SDS011;5863;52.832;4.758;2024-03-23T04:33:13;11.00;;;2.55;;
11614;SDS011;5863;52.832;4.758;2024-03-23T04:35:40;14.60;;;2.55;;
11614;SDS011;5863;52.832;4.758;2024-03-23T04:38:05;16.13;;;2.50;;
11614;SDS011;5863;52.832;4.758;2024-03-23T04:40:34;7.78;;;2.08;;
11614;SDS011;5863;52.832;4.758;2024-03-23T04:43:01;7.45;;;1.95;;
11614;SDS011;5863;52.832;4.758;2024-03-23T04:45:29;12.30;;;2.15;;
11614;SDS011;5863;52.832;4.758;2024-03-23T04:47:56;14.10;;;2.72;;
11614;SDS011;5863;52.832;4.758;2024-03-23T04:50:23;12.95;;;2.65;;
11614;SDS011;5863;52.832;4.758;2024-03-23T04:52:49;11.80;;;2.00;;
11614;SDS011;5863;52.832;4.758;2024-03-23T04:55:15;7.40;;;2.40;;
11614;SDS011;5863;52.832;4.758;2024-03-23T04:57:43;10.50;;;2.60;;
11614;SDS011;5863;52.832;4.758;2024-03-23T05:00:10;10.38;;;2.20;;
11614;SDS011;5863;52.832;4.758;2024-03-23T05:02:42;11.65;;;2.25;;
11614;SDS011;5863;52.832;4.758;2024-03-23T05:05:09;15.30;;;2.50;;
11614;SDS011;5863;52.832;4.758;2024-03-23T05:07:36;7.25;;;2.25;;
11614;SDS011;5863;52.832;4.758;2024-03-23T05:10:02;12.80;;;2.70;;
11614;SDS011;5863;52.832;4.758;2024-03-23T05:12:29;9.32;;;2.33;;
11614;SDS011;5863;52.832;4.758;2024-03-23T05:14:57;10.50;;;2.22;;
11614;SDS011;5863;52.832;4.758;2024-03-23T05:17:24;9.05;;;2.35;;
11614;SDS011;5863;52.832;4.758;2024-03-23T05:19:50;10.90;;;2.70;;
11614;SDS011;5863;52.832;4.758;2024-03-23T05:22:17;8.88;;;2.10;;
11614;SDS011;5863;52.832;4.758;2024-03-23T05:24:44;12.88;;;3.00;;
11614;SDS011;5863;52.832;4.758;2024-03-23T05:27:11;8.77;;;2.28;;
11614;SDS011;5863;52.832;4.758;2024-03-23T05:29:37;12.32;;;2.50;;
11614;SDS011;5863;52.832;4.758;2024-03-23T05:32:06;12.45;;;2.83;;
11614;SDS011;5863;52.832;4.758;2024-03-23T05:34:32;13.43;;;3.28;;
11614;SDS011;5863;52.832;4.758;2024-03-23T05:36:59;14.38;;;3.80;;
11614;SDS011;5863;52.832;4.758;2024-03-23T05:39:25;11.68;;;2.70;;
11614;SDS011;5863;52.832;4.758;2024-03-23T05:41:52;10.75;;;3.22;;
11614;SDS011;5863;52.832;4.758;2024-03-23T05:44:18;8.95;;;2.45;;
11614;SDS011;5863;52.832;4.758;2024-03-23T05:46:45;7.88;;;2.72;;
11614;SDS011;5863;52.832;4.758;2024-03-23T05:49:15;13.30;;;3.17;;
11614;SDS011;5863;52.832;4.758;2024-03-23T05:51:42;13.23;;;4.63;;
11614;SDS011;5863;52.832;4.758;2024-03-23T05:54:08;10.45;;;3.25;;
11614;SDS011;5863;52.832;4.758;2024-03-23T05:56:35;11.07;;;3.05;;
11614;SDS011;5863;52.832;4.758;2024-03-23T05:59:01;12.32;;;3.40;;
11614;SDS011;5863;52.832;4.758;2024-03-23T06:01:29;18.85;;;4.60;;
11614;SDS011;5863;52.832;4.758;2024-03-23T06:03:57;12.60;;;4.82;;
11614;SDS011;5863;52.832;4.758;2024-03-23T06:06:27;11.70;;;3.40;;
11614;SDS011;5863;52.832;4.758;2024-03-23T06:08:55;9.75;;;3.10;;
11614;SDS011;5863;52.832;4.758;2024-03-23T06:11:22;12.20;;;3.78;;
11614;SDS011;5863;52.832;4.758;2024-03-23T06:13:48;10.27;;;3.63;;
11614;SDS011;5863;52.832;4.758;2024-03-23T06:16:14;8.23;;;2.58;;
11614;SDS011;5863;52.832;4.758;2024-03-23T06:18:40;11.60;;;2.47;;
11614;SDS011;5863;52.832;4.758;2024-03-23T06:21:12;9.30;;;2.20;;
11614;SDS011;5863;52.832;4.758;2024-03-23T06:23:40;11.13;;;2.42;;
11614;SDS011;5863;52.832;4.758;2024-03-23T06:26:07;12.88;;;2.60;;
11614;SDS011;5863;52.832;4.758;2024-03-23T06:28:33;7.43;;;2.03;;
11614;SDS011;5863;52.832;4.758;2024-03-23T06:31:01;14.35;;;2.70;;
11614;SDS011;5863;52.832;4.758;2024-03-23T06:33:27;8.75;;;2.72;;
11614;SDS011;5863;52.832;4.758;2024-03-23T06:35:54;11.70;;;3.22;;
11614;SDS011;5863;52.832;4.758;2024-03-23T06:38:20;9.20;;;2.55;;
11614;SDS011;5863;52.832;4.758;2024-03-23T06:40:48;11.27;;;2.90;;
11614;SDS011;5863;52.832;4.758;2024-03-23T06:43:15;11.32;;;2.67;;
11614;SDS011;5863;52.832;4.758;2024-03-23T06:45:42;14.15;;;2.97;;
11614;SDS011;5863;52.832;4.758;2024-03-23T06:48:08;12.90;;;2.85;;
11614;SDS011;5863;52.832;4.758;2024-03-23T06:50:35;8.13;;;3.47;;
11614;SDS011;5863;52.832;4.758;2024-03-23T06:53:01;8.80;;;2.47;;
11614;SDS011;5863;52.832;4.758;2024-03-23T06:55:30;14.68;;;3.50;;
11614;SDS011;5863;52.832;4.758;2024-03-23T06:57:57;11.57;;;2.70;;
11614;SDS011;5863;52.832;4.758;2024-03-23T07:00:24;11.88;;;2.83;;
11614;SDS011;5863;52.832;4.758;2024-03-23T07:02:51;12.93;;;3.28;;
11614;SDS011;5863;52.832;4.758;2024-03-23T07:05:18;13.73;;;2.55;;
11614;SDS011;5863;52.832;4.758;2024-03-23T07:07:43;14.15;;;2.95;;
11614;SDS011;5863;52.832;4.758;2024-03-23T07:10:10;10.43;;;2.55;;
11614;SDS011;5863;52.832;4.758;2024-03-23T07:12:36;10.55;;;2.35;;
11614;SDS011;5863;52.832;4.758;2024-03-23T07:15:05;10.77;;;2.60;;
11614;SDS011;5863;52.832;4.758;2024-03-23T07:17:33;12.25;;;2.50;;
11614;SDS011;5863;52.832;4.758;2024-03-23T07:20:00;13.95;;;2.70;;
11614;SDS011;5863;52.832;4.758;2024-03-23T07:22:28;9.70;;;2.38;;
11614;SDS011;5863;52.832;4.758;2024-03-23T07:24:55;11.98;;;3.03;;
11614;SDS011;5863;52.832;4.758;2024-03-23T07:27:22;13.15;;;2.83;;
11614;SDS011;5863;52.832;4.758;2024-03-23T07:29:49;10.48;;;3.30;;
11614;SDS011;5863;52.832;4.758;2024-03-23T07:32:16;10.63;;;2.83;;
11614;SDS011;5863;52.832;4.758;2024-03-23T07:34:43;13.75;;;3.15;;
11614;SDS011;5863;52.832;4.758;2024-03-23T07:37:09;12.20;;;2.55;;
11614;SDS011;5863;52.832;4.758;2024-03-23T07:39:36;14.95;;;4.00;;
11614;SDS011;5863;52.832;4.758;2024-03-23T07:42:02;13.60;;;3.60;;
11614;SDS011;5863;52.832;4.758;2024-03-23T07:44:29;7.97;;;2.63;;
11614;SDS011;5863;52.832;4.758;2024-03-23T07:46:55;13.70;;;3.05;;
11614;SDS011;5863;52.832;4.758;2024-03-23T07:49:23;11.50;;;2.83;;
11614;SDS011;5863;52.832;4.758;2024-03-23T07:51:49;10.57;;;2.33;;
11614;SDS011;5863;52.832;4.758;2024-03-23T07:54:16;8.70;;;2.35;;
11614;SDS011;5863;52.832;4.758;2024-03-23T07:56:42;7.53;;;2.15;;
11614;SDS011;5863;52.832;4.758;2024-03-23T07:59:09;11.13;;;2.42;;
11614;SDS011;5863;52.832;4.758;2024-03-23T08:01:36;12.20;;;2.58;;
11614;SDS011;5863;52.832;4.758;2024-03-23T08:04:03;7.18;;;2.05;;
11614;SDS011;5863;52.832;4.758;2024-03-23T08:06:30;15.57;;;2.67;;
11614;SDS011;5863;52.832;4.758;2024-03-23T08:08:57;10.25;;;2.70;;
11614;SDS011;5863;52.832;4.758;2024-03-23T08:11:26;11.35;;;2.85;;
11614;SDS011;5863;52.832;4.758;2024-03-23T08:13:53;8.82;;;2.60;;
11614;SDS011;5863;52.832;4.758;2024-03-23T08:16:20;9.32;;;2.38;;
11614;SDS011;5863;52.832;4.758;2024-03-23T08:18:47;12.60;;;2.70;;
11614;SDS011;5863;52.832;4.758;2024-03-23T08:21:13;9.15;;;2.38;;
11614;SDS011;5863;52.832;4.758;2024-03-23T08:23:41;10.85;;;3.15;;
11614;SDS011;5863;52.832;4.758;2024-03-23T08:26:08;11.48;;;2.65;;
11614;SDS011;5863;52.832;4.758;2024-03-23T08:28:37;9.75;;;2.88;;
11614;SDS011;5863;52.832;4.758;2024-03-23T08:31:03;8.68;;;2.75;;
11614;SDS011;5863;52.832;4.758;2024-03-23T08:33:31;10.35;;;3.35;;
11614;SDS011;5863;52.832;4.758;2024-03-23T08:35:58;10.65;;;2.65;;
11614;SDS011;5863;52.832;4.758;2024-03-23T08:38:26;12.48;;;3.70;;
11614;SDS011;5863;52.832;4.758;2024-03-23T08:40:58;17.73;;;6.55;;
11614;SDS011;5863;52.832;4.758;2024-03-23T08:43:26;19.27;;;5.78;;
11614;SDS011;5863;52.832;4.758;2024-03-23T08:46:03;9.60;;;3.35;;
11614;SDS011;5863;52.832;4.758;2024-03-23T08:48:31;8.27;;;3.10;;
11614;SDS011;5863;52.832;4.758;2024-03-23T08:51:00;13.70;;;3.15;;
11614;SDS011;5863;52.832;4.758;2024-03-23T08:53:28;12.93;;;3.20;;
11614;SDS011;5863;52.832;4.758;2024-03-23T08:55:54;10.98;;;3.60;;
11614;SDS011;5863;52.832;4.758;2024-03-23T08:58:23;8.40;;;2.67;;
11614;SDS011;5863;52.832;4.758;2024-03-23T09:00:49;14.00;;;2.60;;
11614;SDS011;5863;52.832;4.758;2024-03-23T09:03:16;11.95;;;2.53;;
11614;SDS011;5863;52.832;4.758;2024-03-23T09:05:42;12.20;;;2.63;;
11614;SDS011;5863;52.832;4.758;2024-03-23T09:08:09;10.38;;;2.55;;
11614;SDS011;5863;52.832;4.758;2024-03-23T09:10:37;10.23;;;2.47;;
11614;SDS011;5863;52.832;4.758;2024-03-23T09:13:05;14.93;;;2.92;;
11614;SDS011;5863;52.832;4.758;2024-03-23T09:15:33;14.77;;;3.13;;
11614;SDS011;5863;52.832;4.758;2024-03-23T09:18:01;10.90;;;3.00;;
11614;SDS011;5863;52.832;4.758;2024-03-23T09:20:27;16.65;;;3.22;;
11614;SDS011;5863;52.832;4.758;2024-03-23T09:22:54;13.45;;;2.72;;
11614;SDS011;5863;52.832;4.758;2024-03-23T09:25:20;8.77;;;2.83;;
11614;SDS011;5863;52.832;4.758;2024-03-23T09:27:47;14.82;;;3.33;;
11614;SDS011;5863;52.832;4.758;2024-03-23T09:30:13;13.93;;;3.13;;
11614;SDS011;5863;52.832;4.758;2024-03-23T09:32:43;12.25;;;2.80;;
11614;SDS011;5863;52.832;4.758;2024-03-23T09:35:09;10.85;;;2.08;;
11614;SDS011;5863;52.832;4.758;2024-03-23T09:37:36;7.00;;;1.98;;
11614;SDS011;5863;52.832;4.758;2024-03-23T09:40:05;9.18;;;2.17;;
11614;SDS011;5863;52.832;4.758;2024-03-23T09:42:35;10.02;;;2.20;;
11614;SDS011;5863;52.832;4.758;2024-03-23T09:45:01;9.20;;;2.42;;
11614;SDS011;5863;52.832;4.758;2024-03-23T09:47:31;8.48;;;2.30;;
11614;SDS011;5863;52.832;4.758;2024-03-23T09:49:59;12.95;;;3.28;;
11614;SDS011;5863;52.832;4.758;2024-03-23T09:52:27;14.45;;;3.35;;
11614;SDS011;5863;52.832;4.758;2024-03-23T09:54:53;11.90;;;2.67;;
11614;SDS011;5863;52.832;4.758;2024-03-23T09:57:19;12.88;;;2.67;;
11614;SDS011;5863;52.832;4.758;2024-03-23T09:59:45;10.57;;;2.63;;
11614;SDS011;5863;52.832;4.758;2024-03-23T10:02:13;9.18;;;2.40;;
11614;SDS011;5863;52.832;4.758;2024-03-23T10:04:42;9.60;;;2.78;;
11614;SDS011;5863;52.832;4.758;2024-03-23T10:07:14;9.13;;;3.03;;
11614;SDS011;5863;52.832;4.758;2024-03-23T10:09:41;16.08;;;3.60;;
11614;SDS011;5863;52.832;4.758;2024-03-23T10:12:08;10.43;;;3.03;;
11614;SDS011;5863;52.832;4.758;2024-03-23T10:14:35;9.80;;;2.70;;
11614;SDS011;5863;52.832;4.758;2024-03-23T10:17:13;14.48;;;3.00;;
11614;SDS011;5863;52.832;4.758;2024-03-23T10:19:40;8.90;;;2.38;;
11614;SDS011;5863;52.832;4.758;2024-03-23T10:22:08;15.98;;;2.83;;
11614;SDS011;5863;52.832;4.758;2024-03-23T10:24:37;12.25;;;2.45;;
11614;SDS011;5863;52.832;4.758;2024-03-23T10:27:03;11.68;;;2.60;;
11614;SDS011;5863;52.832;4.758;2024-03-23T10:29:30;9.27;;;2.72;;
11614;SDS011;5863;52.832;4.758;2024-03-23T10:32:07;10.88;;;2.75;;
11614;SDS011;5863;52.832;4.758;2024-03-23T10:34:35;13.93;;;2.67;;
11614;SDS011;5863;52.832;4.758;2024-03-23T10:37:01;11.07;;;2.67;;
11614;SDS011;5863;52.832;4.758;2024-03-23T10:39:30;14.75;;;2.92;;
11614;SDS011;5863;52.832;4.758;2024-03-23T10:42:00;13.23;;;2.92;;
11614;SDS011;5863;52.832;4.758;2024-03-23T10:44:29;8.98;;;2.47;;
11614;SDS011;5863;52.832;4.758;2024-03-23T10:46:56;12.57;;;2.53;;
11614;SDS011;5863;52.832;4.758;2024-03-23T10:49:26;8.45;;;2.65;;
11614;SDS011;5863;52.832;4.758;2024-03-23T10:51:55;12.55;;;2.92;;
11614;SDS011;5863;52.832;4.758;2024-03-23T10:54:24;16.63;;;3.42;;
11614;SDS011;5863;52.832;4.758;2024-03-23T10:56:51;14.98;;;3.58;;
11614;SDS011;5863;52.832;4.758;2024-03-23T10:59:22;15.18;;;3.00;;
11614;SDS011;5863;52.832;4.758;2024-03-23T11:01:55;11.75;;;3.17;;
11614;SDS011;5863;52.832;4.758;2024-03-23T11:04:29;9.07;;;2.97;;
11614;SDS011;5863;52.832;4.758;2024-03-23T11:06:56;8.50;;;3.05;;
11614;SDS011;5863;52.832;4.758;2024-03-23T11:09:39;10.13;;;2.92;;
11614;SDS011;5863;52.832;4.758;2024-03-23T11:12:17;10.82;;;3.35;;
11614;SDS011;5863;52.832;4.758;2024-03-23T11:15:00;13.00;;;3.03;;
11614;SDS011;5863;52.832;4.758;2024-03-23T11:17:28;12.50;;;2.95;;
11614;SDS011;5863;52.832;4.758;2024-03-23T11:19:56;7.35;;;2.60;;
11614;SDS011;5863;52.832;4.758;2024-03-23T11:22:38;11.13;;;2.97;;
11614;SDS011;5863;52.832;4.758;2024-03-23T11:25:15;14.60;;;3.15;;
11614;SDS011;5863;52.832;4.758;2024-03-23T11:27:43;11.88;;;3.00;;
11614;SDS011;5863;52.832;4.758;2024-03-23T11:30:15;10.95;;;2.88;;
11614;SDS011;5863;52.832;4.758;2024-03-23T11:32:43;13.63;;;2.78;;
11614;SDS011;5863;52.832;4.758;2024-03-23T11:35:10;11.20;;;2.80;;
11614;SDS011;5863;52.832;4.758;2024-03-23T11:38:00;9.82;;;2.63;;
11614;SDS011;5863;52.832;4.758;2024-03-23T11:40:34;10.73;;;2.83;;
11614;SDS011;5863;52.832;4.758;2024-03-23T11:43:01;10.02;;;2.70;;
11614;SDS011;5863;52.832;4.758;2024-03-23T11:45:34;13.20;;;3.38;;
11614;SDS011;5863;52.832;4.758;2024-03-23T11:48:02;8.48;;;2.60;;
11614;SDS011;5863;52.832;4.758;2024-03-23T11:50:33;10.10;;;3.13;;
11614;SDS011;5863;52.832;4.758;2024-03-23T11:53:09;18.15;;;3.65;;
11614;SDS011;5863;52.832;4.758;2024-03-23T11:55:39;14.05;;;3.85;;
11614;SDS011;5863;52.832;4.758;2024-03-23T11:58:06;10.43;;;2.92;;
11614;SDS011;5863;52.832;4.758;2024-03-23T12:00:35;10.13;;;2.80;;
11614;SDS011;5863;52.832;4.758;2024-03-23T12:03:01;11.45;;;3.10;;
11614;SDS011;5863;52.832;4.758;2024-03-23T12:05:28;13.93;;;2.90;;
11614;SDS011;5863;52.832;4.758;2024-03-23T12:07:54;8.45;;;2.63;;
11614;SDS011;5863;52.832;4.758;2024-03-23T12:10:21;10.80;;;2.53;;
11614;SDS011;5863;52.832;4.758;2024-03-23T12:12:58;7.88;;;3.17;;
11614;SDS011;5863;52.832;4.758;2024-03-23T12:15:26;8.38;;;3.10;;
11614;SDS011;5863;52.832;4.758;2024-03-23T12:17:53;9.65;;;2.85;;
11614;SDS011;5863;52.832;4.758;2024-03-23T12:20:32;9.25;;;2.25;;
11614;SDS011;5863;52.832;4.758;2024-03-23T12:23:04;8.65;;;2.70;;
11614;SDS011;5863;52.832;4.758;2024-03-23T12:25:35;5.75;;;1.73;;
11614;SDS011;5863;52.832;4.758;2024-03-23T12:28:02;8.82;;;2.42;;
11614;SDS011;5863;52.832;4.758;2024-03-23T12:30:31;9.52;;;2.38;;
11614;SDS011;5863;52.832;4.758;2024-03-23T12:32:59;8.82;;;2.13;;
11614;SDS011;5863;52.832;4.758;2024-03-23T12:35:25;11.52;;;2.60;;
11614;SDS011;5863;52.832;4.758;2024-03-23T12:37:51;12.15;;;2.78;;
11614;SDS011;5863;52.832;4.758;2024-03-23T12:40:18;11.43;;;2.70;;
11614;SDS011;5863;52.832;4.758;2024-03-23T12:42:44;7.85;;;2.55;;
11614;SDS011;5863;52.832;4.758;2024-03-23T12:45:11;15.13;;;2.75;;
11614;SDS011;5863;52.832;4.758;2024-03-23T12:47:37;6.35;;;2.05;;
11614;SDS011;5863;52.832;4.758;2024-03-23T12:50:06;7.47;;;2.20;;
11614;SDS011;5863;52.832;4.758;2024-03-23T12:52:32;7.05;;;2.35;;
11614;SDS011;5863;52.832;4.758;2024-03-23T12:54:59;9.27;;;1.95;;
11614;SDS011;5863;52.832;4.758;2024-03-23T12:57:25;6.70;;;1.98;;
11614;SDS011;5863;52.832;4.758;2024-03-23T12:59:52;7.28;;;1.63;;
11614;SDS011;5863;52.832;4.758;2024-03-23T13:02:18;4.88;;;1.60;;
11614;SDS011;5863;52.832;4.758;2024-03-23T13:04:46;7.63;;;1.98;;
11614;SDS011;5863;52.832;4.758;2024-03-23T13:07:16;11.38;;;2.70;;
11614;SDS011;5863;52.832;4.758;2024-03-23T13:09:43;6.95;;;2.05;;
11614;SDS011;5863;52.832;4.758;2024-03-23T13:12:09;10.07;;;2.50;;
11614;SDS011;5863;52.832;4.758;2024-03-23T13:14:37;9.25;;;2.25;;
11614;SDS011;5863;52.832;4.758;2024-03-23T13:17:03;6.47;;;2.40;;
11614;SDS011;5863;52.832;4.758;2024-03-23T13:19:30;11.00;;;2.80;;
11614;SDS011;5863;52.832;4.758;2024-03-23T13:21:56;9.23;;;2.17;;
11614;SDS011;5863;52.832;4.758;2024-03-23T13:24:25;7.97;;;2.30;;
11614;SDS011;5863;52.832;4.758;2024-03-23T13:26:52;10.75;;;2.47;;
11614;SDS011;5863;52.832;4.758;2024-03-23T13:29:19;10.38;;;2.55;;
11614;SDS011;5863;52.832;4.758;2024-03-23T13:31:46;12.07;;;2.63;;
11614;SDS011;5863;52.832;4.758;2024-03-23T13:34:13;8.02;;;2.00;;
11614;SDS011;5863;52.832;4.758;2024-03-23T13:36:40;7.97;;;2.10;;
11614;SDS011;5863;52.832;4.758;2024-03-23T13:39:07;5.60;;;1.63;;
11614;SDS011;5863;52.832;4.758;2024-03-23T13:41:38;4.32;;;1.70;;
11614;SDS011;5863;52.832;4.758;2024-03-23T13:44:05;7.95;;;1.60;;
11614;SDS011;5863;52.832;4.758;2024-03-23T13:46:31;7.70;;;2.05;;
11614;SDS011;5863;52.832;4.758;2024-03-23T13:48:58;15.90;;;2.42;;
11614;SDS011;5863;52.832;4.758;2024-03-23T13:51:24;9.55;;;1.80;;
11614;SDS011;5863;52.832;4.758;2024-03-23T13:53:53;9.75;;;2.15;;
11614;SDS011;5863;52.832;4.758;2024-03-23T13:56:19;11.02;;;2.35;;
11614;SDS011;5863;52.832;4.758;2024-03-23T13:58:47;10.13;;;2.20;;
11614;SDS011;5863;52.832;4.758;2024-03-23T14:01:14;10.73;;;2.17;;
11614;SDS011;5863;52.832;4.758;2024-03-23T14:03:41;8.40;;;2.05;;
11614;SDS011;5863;52.832;4.758;2024-03-23T14:06:07;4.53;;;1.90;;
11614;SDS011;5863;52.832;4.758;2024-03-23T14:08:34;8.90;;;2.30;;
11614;SDS011;5863;52.832;4.758;2024-03-23T14:11:01;9.45;;;1.92;;
11614;SDS011;5863;52.832;4.758;2024-03-23T14:13:29;8.15;;;1.85;;
11614;SDS011;5863;52.832;4.758;2024-03-23T14:15:57;8.38;;;1.67;;
11614;SDS011;5863;52.832;4.758;2024-03-23T14:18:25;12.27;;;2.28;;
11614;SDS011;5863;52.832;4.758;2024-03-23T14:20:51;10.23;;;2.17;;
11614;SDS011;5863;52.832;4.758;2024-03-23T14:23:18;9.85;;;1.95;;
11614;SDS011;5863;52.832;4.758;2024-03-23T14:25:44;9.70;;;2.15;;
11614;SDS011;5863;52.832;4.758;2024-03-23T14:28:11;6.82;;;1.98;;
11614;SDS011;5863;52.832;4.758;2024-03-23T14:30:39;10.70;;;1.73;;
11614;SDS011;5863;52.832;4.758;2024-03-23T14:33:08;6.72;;;3.05;;
11614;SDS011;5863;52.832;4.758;2024-03-23T14:35:34;10.82;;;1.85;;
11614;SDS011;5863;52.832;4.758;2024-03-23T14:38:01;10.73;;;2.28;;
11614;SDS011;5863;52.832;4.758;2024-03-23T14:40:27;9.43;;;1.80;;
11614;SDS011;5863;52.832;4.758;2024-03-23T14:42:54;8.48;;;2.20;;
11614;SDS011;5863;52.832;4.758;2024-03-23T14:45:20;5.65;;;1.77;;
11614;SDS011;5863;52.832;4.758;2024-03-23T14:47:52;10.23;;;2.20;;
11614;SDS011;5863;52.832;4.758;2024-03-23T14:50:20;6.90;;;2.00;;
11614;SDS011;5863;52.832;4.758;2024-03-23T14:52:47;7.13;;;1.77;;
11614;SDS011;5863;52.832;4.758;2024-03-23T14:55:13;5.90;;;1.48;;
11614;SDS011;5863;52.832;4.758;2024-03-23T14:57:40;5.18;;;1.50;;
11614;SDS011;5863;52.832;4.758;2024-03-23T15:00:07;4.45;;;1.30;;
11614;SDS011;5863;52.832;4.758;2024-03-23T15:02:35;7.00;;;1.60;;
11614;SDS011;5863;52.832;4.758;2024-03-23T15:05:01;3.40;;;1.52;;
11614;SDS011;5863;52.832;4.758;2024-03-23T15:07:30;6.43;;;1.50;;
11614;SDS011;5863;52.832;4.758;2024-03-23T15:09:56;7.35;;;2.03;;
11614;SDS011;5863;52.832;4.758;2024-03-23T15:12:23;8.18;;;1.58;;
11614;SDS011;5863;52.832;4.758;2024-03-23T15:14:49;5.03;;;1.40;;
11614;SDS011;5863;52.832;4.758;2024-03-23T15:17:16;6.55;;;1.30;;
11614;SDS011;5863;52.832;4.758;2024-03-23T15:19:43;5.32;;;1.50;;
11614;SDS011;5863;52.832;4.758;2024-03-23T15:22:10;8.07;;;1.80;;
11614;SDS011;5863;52.832;4.758;2024-03-23T15:24:37;9.27;;;1.70;;
11614;SDS011;5863;52.832;4.758;2024-03-23T15:27:04;12.55;;;1.98;;
11614;SDS011;5863;52.832;4.758;2024-03-23T15:29:32;10.82;;;2.10;;
11614;SDS011;5863;52.832;4.758;2024-03-23T15:31:59;6.60;;;2.28;;
11614;SDS011;5863;52.832;4.758;2024-03-23T15:34:25;11.13;;;2.28;;
11614;SDS011;5863;52.832;4.758;2024-03-23T15:36:52;8.15;;;1.75;;
11614;SDS011;5863;52.832;4.758;2024-03-23T15:39:18;5.50;;;1.10;;
11614;SDS011;5863;52.832;4.758;2024-03-23T15:41:47;7.22;;;1.63;;
11614;SDS011;5863;52.832;4.758;2024-03-23T15:44:13;4.00;;;1.05;;
11614;SDS011;5863;52.832;4.758;2024-03-23T15:46:40;4.32;;;1.17;;